Terminal Aerodrome Forecast
Issued by NWS Cleveland, OH

Home | Current Version | Previous Version | Text Only | Print | Product List | Glossary On
Versions: 1 2 3 4 5 6 7 8 9 10 11 12 13 14 15 16 17 18 19
000
FTUS41 KCLE 221500 AAA
TAFCAK
TAF AMD
KCAK 221519Z 2215/2312 36011KT P6SM OVC008
     FM221700 36011KT P6SM OVC010
     FM221800 36010KT P6SM OVC025
     FM222000 36010KT P6SM BKN035
     FM222300 36004KT P6SM SCT035=

USA.gov is the U.S. government's official web portal to all federal, state and local government web resources and services.